Portada
METAR-TAF:

METAR-TAF

Aeroports :

Malakula, Vanuatu

latitud: 16-27-26S, longitud: 167-49-42E, altitud: 2 m

METAR: manca

Hora: 21:46 (10:46 UTC)

Pronòstic

L'informe es va fer fa 5 hores i 56 minuts, a les 04:50 UTC
Pronòstic vàlid del 25 a les 06 UTC al 26 a les 06 UTC
Vent 5 kt del Sud/Sud-Est
Visibilitat: 8000 m
Núvols disperses a una alçada de 2000 ft
Cel ennuvolat a una alçada de 6000 ft
Escasses núvols a una alçada de 1000 ft
Cel ennuvolat a una alçada de 1800 ft
Escasses núvols a una alçada de 2200 ft, Cumulonimbus.
Cel cobert a una alçada de 10000 ft
Cel ennuvolat a una alçada de 1800 ft
Cel cobert a una alçada de 4000 ft
tempesta, pluja, xàfecs de pluja

TAF: NVSL 250450Z 2506/2606 16005KT 9999 SCT020 BKN060 INTER 2506/2508 6000 -TSRA FEW010 BKN018 FEW022CB OVC100 INTER 2506/2512 8000 SHRA BKN018 OVC040

Observacions i pronòstics meteorològics de més de 4000 aeroports (METAR i TAF).

Les estacions disponibles són els punts grocs i vermells al mapa.

Posi el ratolí al punt desitjat per veure el nom de l'estació.

Feu clic per veure les observacions i els pronòstics meteorològics.

Per canviar el mapa: feu clic els botons verds amb una creu de color negre per apropar; al botó verd amb un guió per allunyar la imatge; o en les fletxes verdes per a mapes adjacents.


METAR-TAF: